sensor_id;sensor_type;location;lat;lon;timestamp;P1;durP1;ratioP1;P2;durP2;ratioP2
60502;SDS011;51448;51.660;5.824;2023-05-10T00:00:19;20.33;;;15.07;;
60502;SDS011;51448;51.660;5.824;2023-05-10T00:02:47;19.35;;;14.52;;
60502;SDS011;51448;51.660;5.824;2023-05-10T00:05:15;20.92;;;15.20;;
60502;SDS011;51448;51.660;5.824;2023-05-10T00:07:43;20.60;;;15.02;;
60502;SDS011;51448;51.660;5.824;2023-05-10T00:10:12;19.90;;;14.73;;
60502;SDS011;51448;51.660;5.824;2023-05-10T00:12:40;19.05;;;14.63;;
60502;SDS011;51448;51.660;5.824;2023-05-10T00:15:08;20.13;;;15.02;;
60502;SDS011;51448;51.660;5.824;2023-05-10T00:17:36;19.27;;;14.52;;
60502;SDS011;51448;51.660;5.824;2023-05-10T00:20:09;18.73;;;14.25;;
60502;SDS011;51448;51.660;5.824;2023-05-10T00:23:02;18.63;;;14.68;;
60502;SDS011;51448;51.660;5.824;2023-05-10T00:25:30;22.67;;;15.25;;
60502;SDS011;51448;51.660;5.824;2023-05-10T00:27:58;21.67;;;14.75;;
60502;SDS011;51448;51.660;5.824;2023-05-10T00:30:25;20.40;;;15.10;;
60502;SDS011;51448;51.660;5.824;2023-05-10T00:32:53;18.77;;;14.48;;
60502;SDS011;51448;51.660;5.824;2023-05-10T00:35:20;22.15;;;15.15;;
60502;SDS011;51448;51.660;5.824;2023-05-10T00:37:48;21.83;;;15.90;;
60502;SDS011;51448;51.660;5.824;2023-05-10T00:40:16;20.45;;;14.63;;
60502;SDS011;51448;51.660;5.824;2023-05-10T00:42:48;18.42;;;14.68;;
60502;SDS011;51448;51.660;5.824;2023-05-10T00:45:16;22.35;;;16.27;;
60502;SDS011;51448;51.660;5.824;2023-05-10T00:47:43;20.88;;;15.32;;
60502;SDS011;51448;51.660;5.824;2023-05-10T00:50:12;19.15;;;14.63;;
60502;SDS011;51448;51.660;5.824;2023-05-10T00:52:41;22.30;;;15.85;;
60502;SDS011;51448;51.660;5.824;2023-05-10T00:55:09;23.05;;;14.68;;
60502;SDS011;51448;51.660;5.824;2023-05-10T00:57:39;20.05;;;14.68;;
60502;SDS011;51448;51.660;5.824;2023-05-10T01:00:07;20.40;;;14.85;;
60502;SDS011;51448;51.660;5.824;2023-05-10T01:02:35;19.90;;;15.30;;
60502;SDS011;51448;51.660;5.824;2023-05-10T01:05:03;20.00;;;15.07;;
60502;SDS011;51448;51.660;5.824;2023-05-10T01:07:32;20.95;;;15.10;;
60502;SDS011;51448;51.660;5.824;2023-05-10T01:09:59;22.95;;;15.63;;
60502;SDS011;51448;51.660;5.824;2023-05-10T01:12:27;21.02;;;15.40;;
60502;SDS011;51448;51.660;5.824;2023-05-10T01:14:55;20.05;;;15.02;;
60502;SDS011;51448;51.660;5.824;2023-05-10T01:17:24;20.42;;;14.70;;
60502;SDS011;51448;51.660;5.824;2023-05-10T01:19:53;21.08;;;15.43;;
60502;SDS011;51448;51.660;5.824;2023-05-10T01:28:29;21.27;;;15.40;;
60502;SDS011;51448;51.660;5.824;2023-05-10T01:34:41;24.90;;;16.60;;
60502;SDS011;51448;51.660;5.824;2023-05-10T01:37:24;25.13;;;16.27;;
60502;SDS011;51448;51.660;5.824;2023-05-10T01:40:08;27.45;;;17.70;;
60502;SDS011;51448;51.660;5.824;2023-05-10T01:42:48;26.80;;;18.20;;
60502;SDS011;51448;51.660;5.824;2023-05-10T01:45:28;27.30;;;18.23;;
60502;SDS011;51448;51.660;5.824;2023-05-10T01:48:11;28.33;;;18.08;;
60502;SDS011;51448;51.660;5.824;2023-05-10T01:50:43;29.83;;;19.02;;
60502;SDS011;51448;51.660;5.824;2023-05-10T01:53:13;27.10;;;19.02;;
60502;SDS011;51448;51.660;5.824;2023-05-10T01:55:48;34.15;;;19.67;;
60502;SDS011;51448;51.660;5.824;2023-05-10T01:58:27;28.90;;;20.73;;
60502;SDS011;51448;51.660;5.824;2023-05-10T02:01:00;28.60;;;20.45;;
60502;SDS011;51448;51.660;5.824;2023-05-10T02:03:31;30.10;;;21.73;;
60502;SDS011;51448;51.660;5.824;2023-05-10T02:06:03;33.65;;;21.75;;
60502;SDS011;51448;51.660;5.824;2023-05-10T02:08:39;29.35;;;20.98;;
60502;SDS011;51448;51.660;5.824;2023-05-10T02:11:08;32.00;;;21.52;;
60502;SDS011;51448;51.660;5.824;2023-05-10T02:13:40;33.00;;;22.38;;
60502;SDS011;51448;51.660;5.824;2023-05-10T02:16:10;32.40;;;22.85;;
60502;SDS011;51448;51.660;5.824;2023-05-10T02:18:40;32.17;;;22.15;;
60502;SDS011;51448;51.660;5.824;2023-05-10T02:21:09;34.72;;;23.67;;
60502;SDS011;51448;51.660;5.824;2023-05-10T02:23:40;33.20;;;23.73;;
60502;SDS011;51448;51.660;5.824;2023-05-10T02:26:09;34.47;;;23.52;;
60502;SDS011;51448;51.660;5.824;2023-05-10T02:28:40;32.60;;;22.97;;
60502;SDS011;51448;51.660;5.824;2023-05-10T02:31:10;38.10;;;24.80;;
60502;SDS011;51448;51.660;5.824;2023-05-10T02:33:39;40.33;;;25.48;;
60502;SDS011;51448;51.660;5.824;2023-05-10T02:36:08;39.55;;;25.92;;
60502;SDS011;51448;51.660;5.824;2023-05-10T02:38:39;42.92;;;27.98;;
60502;SDS011;51448;51.660;5.824;2023-05-10T02:41:08;45.22;;;30.00;;
60502;SDS011;51448;51.660;5.824;2023-05-10T02:43:38;47.50;;;30.88;;
60502;SDS011;51448;51.660;5.824;2023-05-10T02:46:09;49.95;;;31.58;;
60502;SDS011;51448;51.660;5.824;2023-05-10T02:48:36;51.65;;;33.38;;
60502;SDS011;51448;51.660;5.824;2023-05-10T02:51:05;53.15;;;31.75;;
60502;SDS011;51448;51.660;5.824;2023-05-10T02:53:35;58.45;;;33.17;;
60502;SDS011;51448;51.660;5.824;2023-05-10T02:56:14;58.28;;;33.53;;
60502;SDS011;51448;51.660;5.824;2023-05-10T03:01:19;53.65;;;32.85;;
60502;SDS011;51448;51.660;5.824;2023-05-10T03:03:47;56.92;;;33.67;;
60502;SDS011;51448;51.660;5.824;2023-05-10T03:06:15;54.05;;;34.17;;
60502;SDS011;51448;51.660;5.824;2023-05-10T03:08:43;52.70;;;34.40;;
60502;SDS011;51448;51.660;5.824;2023-05-10T03:11:21;58.22;;;35.35;;
60502;SDS011;51448;51.660;5.824;2023-05-10T03:17:11;51.28;;;32.95;;
60502;SDS011;51448;51.660;5.824;2023-05-10T03:19:56;50.67;;;33.40;;
60502;SDS011;51448;51.660;5.824;2023-05-10T03:22:36;58.15;;;35.42;;
60502;SDS011;51448;51.660;5.824;2023-05-10T03:25:08;53.00;;;33.33;;
60502;SDS011;51448;51.660;5.824;2023-05-10T03:27:41;58.20;;;35.28;;
60502;SDS011;51448;51.660;5.824;2023-05-10T03:30:12;52.83;;;34.03;;
60502;SDS011;51448;51.660;5.824;2023-05-10T03:32:42;55.83;;;35.50;;
60502;SDS011;51448;51.660;5.824;2023-05-10T03:35:09;55.10;;;34.67;;
60502;SDS011;51448;51.660;5.824;2023-05-10T03:37:40;56.25;;;34.40;;
60502;SDS011;51448;51.660;5.824;2023-05-10T03:40:09;52.65;;;34.13;;
60502;SDS011;51448;51.660;5.824;2023-05-10T03:42:39;56.38;;;35.65;;
60502;SDS011;51448;51.660;5.824;2023-05-10T03:45:07;49.10;;;32.72;;
60502;SDS011;51448;51.660;5.824;2023-05-10T03:47:36;52.00;;;34.70;;
60502;SDS011;51448;51.660;5.824;2023-05-10T03:50:04;57.58;;;35.60;;
60502;SDS011;51448;51.660;5.824;2023-05-10T03:52:34;53.90;;;34.85;;
60502;SDS011;51448;51.660;5.824;2023-05-10T03:55:02;54.22;;;33.38;;
60502;SDS011;51448;51.660;5.824;2023-05-10T03:57:30;52.10;;;34.38;;
60502;SDS011;51448;51.660;5.824;2023-05-10T03:59:59;52.92;;;34.88;;
60502;SDS011;51448;51.660;5.824;2023-05-10T04:02:27;51.33;;;33.80;;
60502;SDS011;51448;51.660;5.824;2023-05-10T04:04:55;54.97;;;33.95;;
60502;SDS011;51448;51.660;5.824;2023-05-10T04:07:23;53.72;;;34.83;;
60502;SDS011;51448;51.660;5.824;2023-05-10T04:09:51;50.40;;;34.42;;
60502;SDS011;51448;51.660;5.824;2023-05-10T04:12:19;54.50;;;35.95;;
60502;SDS011;51448;51.660;5.824;2023-05-10T04:14:47;54.03;;;35.85;;
60502;SDS011;51448;51.660;5.824;2023-05-10T04:17:14;55.15;;;36.10;;
60502;SDS011;51448;51.660;5.824;2023-05-10T04:19:42;53.22;;;35.45;;
60502;SDS011;51448;51.660;5.824;2023-05-10T04:22:10;52.60;;;34.58;;
60502;SDS011;51448;51.660;5.824;2023-05-10T04:24:37;57.78;;;37.65;;
60502;SDS011;51448;51.660;5.824;2023-05-10T04:27:05;57.35;;;37.42;;
60502;SDS011;51448;51.660;5.824;2023-05-10T04:29:32;57.15;;;36.55;;
60502;SDS011;51448;51.660;5.824;2023-05-10T04:32:00;57.83;;;37.50;;
60502;SDS011;51448;51.660;5.824;2023-05-10T04:34:27;58.53;;;36.78;;
60502;SDS011;51448;51.660;5.824;2023-05-10T04:36:55;54.13;;;36.67;;
60502;SDS011;51448;51.660;5.824;2023-05-10T04:39:23;54.10;;;35.90;;
60502;SDS011;51448;51.660;5.824;2023-05-10T04:41:50;52.78;;;35.45;;
60502;SDS011;51448;51.660;5.824;2023-05-10T04:44:18;54.30;;;36.03;;
60502;SDS011;51448;51.660;5.824;2023-05-10T04:46:45;53.05;;;35.50;;
60502;SDS011;51448;51.660;5.824;2023-05-10T04:49:13;51.97;;;34.75;;
60502;SDS011;51448;51.660;5.824;2023-05-10T04:51:41;57.53;;;35.75;;
60502;SDS011;51448;51.660;5.824;2023-05-10T04:54:09;55.55;;;35.65;;
60502;SDS011;51448;51.660;5.824;2023-05-10T04:56:37;52.92;;;36.03;;
60502;SDS011;51448;51.660;5.824;2023-05-10T04:59:05;51.70;;;34.42;;
60502;SDS011;51448;51.660;5.824;2023-05-10T05:01:32;52.90;;;34.50;;
60502;SDS011;51448;51.660;5.824;2023-05-10T05:04:00;54.60;;;35.78;;
60502;SDS011;51448;51.660;5.824;2023-05-10T05:06:28;50.22;;;33.50;;
60502;SDS011;51448;51.660;5.824;2023-05-10T05:08:56;47.10;;;32.45;;
60502;SDS011;51448;51.660;5.824;2023-05-10T05:11:30;51.05;;;32.00;;
60502;SDS011;51448;51.660;5.824;2023-05-10T05:13:57;47.80;;;31.77;;
60502;SDS011;51448;51.660;5.824;2023-05-10T05:16:26;48.22;;;31.23;;
60502;SDS011;51448;51.660;5.824;2023-05-10T05:18:54;44.08;;;29.13;;
60502;SDS011;51448;51.660;5.824;2023-05-10T05:21:21;45.92;;;30.38;;
60502;SDS011;51448;51.660;5.824;2023-05-10T05:23:49;47.70;;;31.17;;
60502;SDS011;51448;51.660;5.824;2023-05-10T05:26:17;42.67;;;28.58;;
60502;SDS011;51448;51.660;5.824;2023-05-10T05:28:44;45.70;;;28.70;;
60502;SDS011;51448;51.660;5.824;2023-05-10T05:31:12;47.97;;;29.45;;
60502;SDS011;51448;51.660;5.824;2023-05-10T05:33:41;45.72;;;28.88;;
60502;SDS011;51448;51.660;5.824;2023-05-10T05:36:08;45.90;;;28.50;;
60502;SDS011;51448;51.660;5.824;2023-05-10T05:38:36;49.97;;;29.02;;
60502;SDS011;51448;51.660;5.824;2023-05-10T05:41:04;42.60;;;28.52;;
60502;SDS011;51448;51.660;5.824;2023-05-10T05:43:31;42.47;;;27.20;;
60502;SDS011;51448;51.660;5.824;2023-05-10T05:46:01;41.70;;;27.63;;
60502;SDS011;51448;51.660;5.824;2023-05-10T05:48:29;43.95;;;27.85;;
60502;SDS011;51448;51.660;5.824;2023-05-10T05:50:57;42.35;;;28.10;;
60502;SDS011;51448;51.660;5.824;2023-05-10T05:53:25;48.63;;;27.80;;
60502;SDS011;51448;51.660;5.824;2023-05-10T05:55:53;40.75;;;25.40;;
60502;SDS011;51448;51.660;5.824;2023-05-10T05:58:23;47.67;;;29.02;;
60502;SDS011;51448;51.660;5.824;2023-05-10T06:00:51;38.78;;;25.08;;
60502;SDS011;51448;51.660;5.824;2023-05-10T06:03:22;40.42;;;25.90;;
60502;SDS011;51448;51.660;5.824;2023-05-10T06:05:52;41.05;;;24.73;;
60502;SDS011;51448;51.660;5.824;2023-05-10T06:08:19;42.60;;;26.50;;
60502;SDS011;51448;51.660;5.824;2023-05-10T06:10:47;42.20;;;26.75;;
60502;SDS011;51448;51.660;5.824;2023-05-10T06:13:15;42.65;;;27.15;;
60502;SDS011;51448;51.660;5.824;2023-05-10T06:15:43;47.50;;;27.80;;
60502;SDS011;51448;51.660;5.824;2023-05-10T06:18:18;40.72;;;26.67;;
60502;SDS011;51448;51.660;5.824;2023-05-10T06:20:45;46.00;;;28.35;;
60502;SDS011;51448;51.660;5.824;2023-05-10T06:23:13;43.70;;;28.05;;
60502;SDS011;51448;51.660;5.824;2023-05-10T06:25:40;47.45;;;29.67;;
60502;SDS011;51448;51.660;5.824;2023-05-10T06:28:08;43.38;;;27.67;;
60502;SDS011;51448;51.660;5.824;2023-05-10T06:30:36;42.85;;;28.23;;
60502;SDS011;51448;51.660;5.824;2023-05-10T06:33:04;43.40;;;25.67;;
60502;SDS011;51448;51.660;5.824;2023-05-10T06:35:32;38.80;;;25.85;;
60502;SDS011;51448;51.660;5.824;2023-05-10T06:38:00;40.05;;;27.35;;
60502;SDS011;51448;51.660;5.824;2023-05-10T06:40:28;42.40;;;28.00;;
60502;SDS011;51448;51.660;5.824;2023-05-10T06:42:57;41.50;;;29.00;;
60502;SDS011;51448;51.660;5.824;2023-05-10T06:45:31;36.17;;;25.42;;
60502;SDS011;51448;51.660;5.824;2023-05-10T06:47:59;37.80;;;26.17;;
60502;SDS011;51448;51.660;5.824;2023-05-10T06:50:27;34.55;;;25.13;;
60502;SDS011;51448;51.660;5.824;2023-05-10T06:52:54;37.00;;;25.58;;
60502;SDS011;51448;51.660;5.824;2023-05-10T06:55:27;38.55;;;25.83;;
60502;SDS011;51448;51.660;5.824;2023-05-10T06:57:57;36.63;;;25.42;;
60502;SDS011;51448;51.660;5.824;2023-05-10T07:00:24;37.38;;;25.65;;
60502;SDS011;51448;51.660;5.824;2023-05-10T07:02:53;35.33;;;25.50;;
60502;SDS011;51448;51.660;5.824;2023-05-10T07:05:20;35.85;;;24.55;;
60502;SDS011;51448;51.660;5.824;2023-05-10T07:07:49;34.08;;;23.90;;
60502;SDS011;51448;51.660;5.824;2023-05-10T07:10:17;37.03;;;23.73;;
60502;SDS011;51448;51.660;5.824;2023-05-10T07:12:44;32.92;;;23.45;;
60502;SDS011;51448;51.660;5.824;2023-05-10T07:15:12;34.47;;;24.42;;
60502;SDS011;51448;51.660;5.824;2023-05-10T07:17:40;33.35;;;22.98;;
60502;SDS011;51448;51.660;5.824;2023-05-10T07:20:11;29.73;;;21.47;;
60502;SDS011;51448;51.660;5.824;2023-05-10T07:22:39;32.72;;;22.65;;
60502;SDS011;51448;51.660;5.824;2023-05-10T07:25:07;33.25;;;22.45;;
60502;SDS011;51448;51.660;5.824;2023-05-10T07:27:34;31.60;;;22.95;;
60502;SDS011;51448;51.660;5.824;2023-05-10T07:30:02;32.50;;;22.60;;
60502;SDS011;51448;51.660;5.824;2023-05-10T07:32:30;33.45;;;22.13;;
60502;SDS011;51448;51.660;5.824;2023-05-10T07:34:58;30.92;;;22.30;;
60502;SDS011;51448;51.660;5.824;2023-05-10T07:37:26;32.72;;;22.55;;
60502;SDS011;51448;51.660;5.824;2023-05-10T07:39:54;32.67;;;22.55;;
60502;SDS011;51448;51.660;5.824;2023-05-10T07:42:21;32.60;;;22.52;;
60502;SDS011;51448;51.660;5.824;2023-05-10T07:44:49;34.97;;;21.75;;
60502;SDS011;51448;51.660;5.824;2023-05-10T07:47:16;31.02;;;22.02;;
60502;SDS011;51448;51.660;5.824;2023-05-10T07:49:44;34.90;;;22.40;;
60502;SDS011;51448;51.660;5.824;2023-05-10T07:52:11;34.90;;;22.38;;
60502;SDS011;51448;51.660;5.824;2023-05-10T07:54:39;35.05;;;23.67;;
60502;SDS011;51448;51.660;5.824;2023-05-10T07:57:06;33.03;;;22.90;;
60502;SDS011;51448;51.660;5.824;2023-05-10T07:59:34;34.40;;;24.08;;
60502;SDS011;51448;51.660;5.824;2023-05-10T08:02:02;35.47;;;24.55;;
60502;SDS011;51448;51.660;5.824;2023-05-10T08:04:29;38.83;;;25.23;;
60502;SDS011;51448;51.660;5.824;2023-05-10T08:06:59;36.22;;;24.27;;
60502;SDS011;51448;51.660;5.824;2023-05-10T08:09:30;40.55;;;25.52;;
60502;SDS011;51448;51.660;5.824;2023-05-10T08:12:11;36.53;;;24.80;;
60502;SDS011;51448;51.660;5.824;2023-05-10T08:14:40;36.33;;;25.77;;
60502;SDS011;51448;51.660;5.824;2023-05-10T08:17:21;36.38;;;23.67;;
60502;SDS011;51448;51.660;5.824;2023-05-10T08:19:51;32.80;;;24.25;;
60502;SDS011;51448;51.660;5.824;2023-05-10T08:22:18;33.30;;;24.92;;
60502;SDS011;51448;51.660;5.824;2023-05-10T08:24:46;34.85;;;24.17;;
60502;SDS011;51448;51.660;5.824;2023-05-10T08:27:17;34.30;;;24.15;;
60502;SDS011;51448;51.660;5.824;2023-05-10T08:29:44;35.78;;;24.52;;
60502;SDS011;51448;51.660;5.824;2023-05-10T08:32:17;32.47;;;22.30;;
60502;SDS011;51448;51.660;5.824;2023-05-10T08:34:45;29.52;;;21.55;;
60502;SDS011;51448;51.660;5.824;2023-05-10T08:37:44;30.30;;;21.45;;
60502;SDS011;51448;51.660;5.824;2023-05-10T08:40:12;29.38;;;21.02;;
60502;SDS011;51448;51.660;5.824;2023-05-10T08:42:43;32.35;;;21.98;;
60502;SDS011;51448;51.660;5.824;2023-05-10T08:45:22;31.33;;;20.45;;
60502;SDS011;51448;51.660;5.824;2023-05-10T08:47:52;26.77;;;20.25;;
60502;SDS011;51448;51.660;5.824;2023-05-10T08:50:20;28.25;;;20.20;;
60502;SDS011;51448;51.660;5.824;2023-05-10T08:52:49;27.10;;;19.95;;
60502;SDS011;51448;51.660;5.824;2023-05-10T08:55:24;26.20;;;19.20;;
60502;SDS011;51448;51.660;5.824;2023-05-10T08:57:52;27.27;;;20.65;;
60502;SDS011;51448;51.660;5.824;2023-05-10T09:00:21;27.27;;;20.38;;
60502;SDS011;51448;51.660;5.824;2023-05-10T09:02:50;27.05;;;21.13;;
60502;SDS011;51448;51.660;5.824;2023-05-10T09:05:19;27.55;;;20.55;;
60502;SDS011;51448;51.660;5.824;2023-05-10T09:07:47;28.08;;;21.45;;
60502;SDS011;51448;51.660;5.824;2023-05-10T09:10:15;29.88;;;22.27;;
60502;SDS011;51448;51.660;5.824;2023-05-10T09:12:46;28.35;;;22.77;;
60502;SDS011;51448;51.660;5.824;2023-05-10T09:15:15;28.42;;;22.98;;
60502;SDS011;51448;51.660;5.824;2023-05-10T09:17:46;29.42;;;22.88;;
60502;SDS011;51448;51.660;5.824;2023-05-10T09:20:17;28.38;;;22.30;;
60502;SDS011;51448;51.660;5.824;2023-05-10T09:22:44;26.83;;;21.35;;
60502;SDS011;51448;51.660;5.824;2023-05-10T09:25:16;27.60;;;21.40;;
60502;SDS011;51448;51.660;5.824;2023-05-10T09:27:45;25.17;;;20.52;;
60502;SDS011;51448;51.660;5.824;2023-05-10T09:30:23;27.90;;;21.02;;
60502;SDS011;51448;51.660;5.824;2023-05-10T09:32:56;28.08;;;20.92;;
60502;SDS011;51448;51.660;5.824;2023-05-10T09:35:29;27.42;;;20.85;;
60502;SDS011;51448;51.660;5.824;2023-05-10T09:38:00;27.23;;;21.27;;
60502;SDS011;51448;51.660;5.824;2023-05-10T09:40:31;25.42;;;20.48;;
60502;SDS011;51448;51.660;5.824;2023-05-10T09:43:08;25.10;;;18.35;;
60502;SDS011;51448;51.660;5.824;2023-05-10T09:45:37;26.25;;;19.80;;
60502;SDS011;51448;51.660;5.824;2023-05-10T09:48:05;26.13;;;18.80;;
60502;SDS011;51448;51.660;5.824;2023-05-10T09:50:33;26.85;;;20.15;;
60502;SDS011;51448;51.660;5.824;2023-05-10T09:53:02;23.88;;;19.38;;
60502;SDS011;51448;51.660;5.824;2023-05-10T09:58:13;24.10;;;18.48;;
60502;SDS011;51448;51.660;5.824;2023-05-10T10:00:42;22.77;;;18.63;;
60502;SDS011;51448;51.660;5.824;2023-05-10T10:03:16;22.60;;;17.27;;
60502;SDS011;51448;51.660;5.824;2023-05-10T10:05:47;24.80;;;18.15;;
60502;SDS011;51448;51.660;5.824;2023-05-10T10:08:17;23.33;;;17.20;;
60502;SDS011;51448;51.660;5.824;2023-05-10T10:10:45;22.17;;;17.73;;
60502;SDS011;51448;51.660;5.824;2023-05-10T10:13:14;22.95;;;15.52;;
60502;SDS011;51448;51.660;5.824;2023-05-10T10:15:42;20.63;;;15.10;;
60502;SDS011;51448;51.660;5.824;2023-05-10T10:18:14;17.92;;;14.55;;
60502;SDS011;51448;51.660;5.824;2023-05-10T10:20:42;20.33;;;15.68;;
60502;SDS011;51448;51.660;5.824;2023-05-10T10:23:10;19.55;;;15.13;;
60502;SDS011;51448;51.660;5.824;2023-05-10T10:25:38;22.02;;;14.77;;
60502;SDS011;51448;51.660;5.824;2023-05-10T10:28:09;18.65;;;14.93;;
60502;SDS011;51448;51.660;5.824;2023-05-10T10:34:09;19.02;;;16.27;;
60502;SDS011;51448;51.660;5.824;2023-05-10T10:36:51;19.35;;;15.10;;
60502;SDS011;51448;51.660;5.824;2023-05-10T10:39:18;18.88;;;13.68;;
60502;SDS011;51448;51.660;5.824;2023-05-10T10:41:55;16.73;;;13.75;;
60502;SDS011;51448;51.660;5.824;2023-05-10T10:47:08;18.83;;;13.40;;
60502;SDS011;51448;51.660;5.824;2023-05-10T10:57:45;18.17;;;12.60;;
60502;SDS011;51448;51.660;5.824;2023-05-10T11:03:11;14.48;;;11.73;;
60502;SDS011;51448;51.660;5.824;2023-05-10T11:05:42;15.63;;;12.10;;
60502;SDS011;51448;51.660;5.824;2023-05-10T11:10:53;17.90;;;13.02;;
60502;SDS011;51448;51.660;5.824;2023-05-10T11:13:28;16.65;;;13.00;;
60502;SDS011;51448;51.660;5.824;2023-05-10T11:16:11;15.18;;;12.93;;
60502;SDS011;51448;51.660;5.824;2023-05-10T11:19:04;18.90;;;13.93;;
60502;SDS011;51448;51.660;5.824;2023-05-10T11:21:47;16.23;;;12.52;;
60502;SDS011;51448;51.660;5.824;2023-05-10T11:24:17;16.27;;;11.27;;
60502;SDS011;51448;51.660;5.824;2023-05-10T11:29:18;15.87;;;11.90;;
60502;SDS011;51448;51.660;5.824;2023-05-10T11:31:47;17.52;;;13.55;;
60502;SDS011;51448;51.660;5.824;2023-05-10T11:34:23;18.50;;;14.40;;
60502;SDS011;51448;51.660;5.824;2023-05-10T11:36:52;17.77;;;13.70;;
60502;SDS011;51448;51.660;5.824;2023-05-10T11:44:03;16.40;;;13.10;;
60502;SDS011;51448;51.660;5.824;2023-05-10T11:46:41;18.20;;;13.05;;
60502;SDS011;51448;51.660;5.824;2023-05-10T11:49:31;17.13;;;13.13;;
60502;SDS011;51448;51.660;5.824;2023-05-10T11:52:18;15.65;;;11.82;;
60502;SDS011;51448;51.660;5.824;2023-05-10T11:54:55;16.17;;;11.35;;
60502;SDS011;51448;51.660;5.824;2023-05-10T11:57:31;14.82;;;11.13;;
60502;SDS011;51448;51.660;5.824;2023-05-10T12:00:20;15.32;;;12.52;;
60502;SDS011;51448;51.660;5.824;2023-05-10T12:02:49;16.83;;;13.20;;
60502;SDS011;51448;51.660;5.824;2023-05-10T12:05:19;16.63;;;13.48;;
60502;SDS011;51448;51.660;5.824;2023-05-10T12:08:10;19.38;;;13.77;;
60502;SDS011;51448;51.660;5.824;2023-05-10T12:10:44;16.02;;;13.23;;
60502;SDS011;51448;51.660;5.824;2023-05-10T12:13:13;17.25;;;13.63;;
60502;SDS011;51448;51.660;5.824;2023-05-10T12:15:49;14.90;;;13.30;;
60502;SDS011;51448;51.660;5.824;2023-05-10T12:18:22;16.77;;;12.82;;
60502;SDS011;51448;51.660;5.824;2023-05-10T12:20:53;17.65;;;14.02;;
60502;SDS011;51448;51.660;5.824;2023-05-10T12:23:38;19.25;;;13.98;;
60502;SDS011;51448;51.660;5.824;2023-05-10T12:26:22;17.13;;;12.50;;
60502;SDS011;51448;51.660;5.824;2023-05-10T12:29:14;15.23;;;13.02;;
60502;SDS011;51448;51.660;5.824;2023-05-10T12:31:51;16.50;;;12.05;;
60502;SDS011;51448;51.660;5.824;2023-05-10T12:34:32;17.88;;;13.18;;
60502;SDS011;51448;51.660;5.824;2023-05-10T12:37:05;18.15;;;12.88;;
60502;SDS011;51448;51.660;5.824;2023-05-10T12:39:40;16.33;;;13.00;;
60502;SDS011;51448;51.660;5.824;2023-05-10T12:42:10;16.92;;;13.10;;
60502;SDS011;51448;51.660;5.824;2023-05-10T12:44:57;15.57;;;13.23;;
60502;SDS011;51448;51.660;5.824;2023-05-10T12:47:32;16.52;;;13.40;;
60502;SDS011;51448;51.660;5.824;2023-05-10T12:50:07;16.70;;;13.55;;
60502;SDS011;51448;51.660;5.824;2023-05-10T12:52:39;17.52;;;13.95;;
60502;SDS011;51448;51.660;5.824;2023-05-10T12:55:20;15.20;;;11.80;;
60502;SDS011;51448;51.660;5.824;2023-05-10T12:57:54;14.18;;;11.00;;
60502;SDS011;51448;51.660;5.824;2023-05-10T13:01:10;14.63;;;11.07;;
60502;SDS011;51448;51.660;5.824;2023-05-10T13:04:07;16.98;;;13.48;;
60502;SDS011;51448;51.660;5.824;2023-05-10T13:06:38;17.93;;;12.40;;
60502;SDS011;51448;51.660;5.824;2023-05-10T13:09:06;15.75;;;12.85;;
60502;SDS011;51448;51.660;5.824;2023-05-10T13:11:34;15.48;;;12.15;;
60502;SDS011;51448;51.660;5.824;2023-05-10T13:14:01;13.90;;;10.63;;
60502;SDS011;51448;51.660;5.824;2023-05-10T13:16:31;15.38;;;10.20;;
60502;SDS011;51448;51.660;5.824;2023-05-10T13:18:59;12.75;;;9.30;;
60502;SDS011;51448;51.660;5.824;2023-05-10T13:21:26;12.63;;;9.85;;
60502;SDS011;51448;51.660;5.824;2023-05-10T13:23:54;13.63;;;10.43;;
60502;SDS011;51448;51.660;5.824;2023-05-10T13:26:22;15.02;;;10.73;;
60502;SDS011;51448;51.660;5.824;2023-05-10T13:28:50;13.38;;;9.77;;
60502;SDS011;51448;51.660;5.824;2023-05-10T13:31:18;11.82;;;10.10;;
60502;SDS011;51448;51.660;5.824;2023-05-10T13:33:46;12.93;;;10.32;;
60502;SDS011;51448;51.660;5.824;2023-05-10T13:36:14;15.90;;;9.50;;
60502;SDS011;51448;51.660;5.824;2023-05-10T13:38:41;12.82;;;10.00;;
60502;SDS011;51448;51.660;5.824;2023-05-10T13:41:09;12.70;;;10.38;;
60502;SDS011;51448;51.660;5.824;2023-05-10T13:43:37;14.63;;;10.45;;
60502;SDS011;51448;51.660;5.824;2023-05-10T13:46:05;17.10;;;10.60;;
60502;SDS011;51448;51.660;5.824;2023-05-10T13:48:32;14.45;;;10.80;;
60502;SDS011;51448;51.660;5.824;2023-05-10T13:51:03;13.65;;;10.93;;
60502;SDS011;51448;51.660;5.824;2023-05-10T13:53:30;14.10;;;11.13;;
60502;SDS011;51448;51.660;5.824;2023-05-10T13:55:58;15.02;;;11.20;;
60502;SDS011;51448;51.660;5.824;2023-05-10T13:58:25;15.80;;;11.52;;
60502;SDS011;51448;51.660;5.824;2023-05-10T14:00:57;17.75;;;14.18;;
60502;SDS011;51448;51.660;5.824;2023-05-10T14:03:25;21.30;;;15.38;;
60502;SDS011;51448;51.660;5.824;2023-05-10T14:05:52;16.92;;;12.77;;
60502;SDS011;51448;51.660;5.824;2023-05-10T14:08:20;24.85;;;13.48;;
60502;SDS011;51448;51.660;5.824;2023-05-10T14:10:47;12.50;;;10.02;;
60502;SDS011;51448;51.660;5.824;2023-05-10T14:13:15;9.70;;;7.15;;
60502;SDS011;51448;51.660;5.824;2023-05-10T14:15:43;10.38;;;7.15;;
60502;SDS011;51448;51.660;5.824;2023-05-10T14:18:11;13.15;;;8.02;;
60502;SDS011;51448;51.660;5.824;2023-05-10T14:20:38;10.80;;;7.60;;
60502;SDS011;51448;51.660;5.824;2023-05-10T14:23:07;8.95;;;7.00;;
60502;SDS011;51448;51.660;5.824;2023-05-10T14:25:39;12.13;;;7.38;;
60502;SDS011;51448;51.660;5.824;2023-05-10T14:28:07;11.68;;;8.20;;
60502;SDS011;51448;51.660;5.824;2023-05-10T14:30:35;7.38;;;4.97;;
60502;SDS011;51448;51.660;5.824;2023-05-10T14:33:03;7.68;;;4.75;;
60502;SDS011;51448;51.660;5.824;2023-05-10T14:35:31;5.10;;;2.90;;
60502;SDS011;51448;51.660;5.824;2023-05-10T14:37:59;6.40;;;1.80;;
60502;SDS011;51448;51.660;5.824;2023-05-10T14:40:26;4.25;;;2.00;;
60502;SDS011;51448;51.660;5.824;2023-05-10T14:42:54;4.30;;;1.90;;
60502;SDS011;51448;51.660;5.824;2023-05-10T14:45:21;4.10;;;1.90;;
60502;SDS011;51448;51.660;5.824;2023-05-10T14:47:50;5.00;;;2.30;;
60502;SDS011;51448;51.660;5.824;2023-05-10T14:50:17;4.63;;;3.05;;
60502;SDS011;51448;51.660;5.824;2023-05-10T14:53:02;5.68;;;3.80;;
60502;SDS011;51448;51.660;5.824;2023-05-10T14:55:30;6.75;;;3.70;;
60502;SDS011;51448;51.660;5.824;2023-05-10T14:57:58;5.28;;;3.30;;
60502;SDS011;51448;51.660;5.824;2023-05-10T15:00:26;6.22;;;3.45;;
60502;SDS011;51448;51.660;5.824;2023-05-10T15:02:56;6.10;;;3.90;;
60502;SDS011;51448;51.660;5.824;2023-05-10T15:05:25;5.45;;;3.55;;
60502;SDS011;51448;51.660;5.824;2023-05-10T15:07:53;6.65;;;4.00;;
60502;SDS011;51448;51.660;5.824;2023-05-10T15:10:20;6.10;;;3.80;;
60502;SDS011;51448;51.660;5.824;2023-05-10T15:12:49;6.80;;;5.25;;
60502;SDS011;51448;51.660;5.824;2023-05-10T15:15:17;7.55;;;5.30;;
60502;SDS011;51448;51.660;5.824;2023-05-10T15:17:45;6.93;;;5.05;;
60502;SDS011;51448;51.660;5.824;2023-05-10T15:20:13;7.68;;;5.85;;
60502;SDS011;51448;51.660;5.824;2023-05-10T15:22:40;7.30;;;5.82;;
60502;SDS011;51448;51.660;5.824;2023-05-10T15:25:08;9.05;;;6.47;;
60502;SDS011;51448;51.660;5.824;2023-05-10T15:27:36;7.85;;;6.05;;